sensor_id;sensor_type;location;lat;lon;timestamp;P1;durP1;ratioP1;P2;durP2;ratioP2
55308;SDS011;44028;51.358;19.876;2023-02-11T00:01:09;63.22;;;23.65;;
55308;SDS011;44028;51.358;19.876;2023-02-11T00:04:02;38.28;;;17.33;;
55308;SDS011;44028;51.358;19.876;2023-02-11T00:07:18;40.53;;;14.77;;
55308;SDS011;44028;51.358;19.876;2023-02-11T00:09:51;40.00;;;14.35;;
55308;SDS011;44028;51.358;19.876;2023-02-11T00:12:51;47.33;;;16.25;;
55308;SDS011;44028;51.358;19.876;2023-02-11T00:16:08;29.23;;;11.70;;
55308;SDS011;44028;51.358;19.876;2023-02-11T00:19:09;39.03;;;13.60;;
55308;SDS011;44028;51.358;19.876;2023-02-11T00:22:27;39.30;;;14.77;;
55308;SDS011;44028;51.358;19.876;2023-02-11T00:28:17;29.85;;;12.38;;
55308;SDS011;44028;51.358;19.876;2023-02-11T00:31:06;34.85;;;13.43;;
55308;SDS011;44028;51.358;19.876;2023-02-11T00:34:04;34.30;;;12.77;;
55308;SDS011;44028;51.358;19.876;2023-02-11T00:37:06;35.00;;;12.90;;
55308;SDS011;44028;51.358;19.876;2023-02-11T00:39:44;31.90;;;12.95;;
55308;SDS011;44028;51.358;19.876;2023-02-11T00:42:39;36.35;;;13.18;;
55308;SDS011;44028;51.358;19.876;2023-02-11T01:01:48;31.48;;;11.38;;
55308;SDS011;44028;51.358;19.876;2023-02-11T01:05:02;30.95;;;11.25;;
55308;SDS011;44028;51.358;19.876;2023-02-11T01:08:00;29.00;;;10.77;;
55308;SDS011;44028;51.358;19.876;2023-02-11T01:13:45;30.73;;;11.20;;
55308;SDS011;44028;51.358;19.876;2023-02-11T01:16:59;28.48;;;10.10;;
55308;SDS011;44028;51.358;19.876;2023-02-11T01:23:43;26.27;;;10.02;;
55308;SDS011;44028;51.358;19.876;2023-02-11T01:26:30;27.60;;;10.50;;
55308;SDS011;44028;51.358;19.876;2023-02-11T01:32:41;31.83;;;10.38;;
55308;SDS011;44028;51.358;19.876;2023-02-11T01:35:33;36.97;;;13.20;;
55308;SDS011;44028;51.358;19.876;2023-02-11T01:38:23;26.20;;;12.23;;
55308;SDS011;44028;51.358;19.876;2023-02-11T01:41:03;23.60;;;9.88;;
55308;SDS011;44028;51.358;19.876;2023-02-11T01:44:22;27.02;;;10.38;;
55308;SDS011;44028;51.358;19.876;2023-02-11T01:46:52;24.90;;;10.45;;
55308;SDS011;44028;51.358;19.876;2023-02-11T01:49:46;21.85;;;8.70;;
55308;SDS011;44028;51.358;19.876;2023-02-11T01:53:04;19.08;;;8.77;;
55308;SDS011;44028;51.358;19.876;2023-02-11T01:56:01;22.65;;;9.40;;
55308;SDS011;44028;51.358;19.876;2023-02-11T01:58:44;20.67;;;9.75;;
55308;SDS011;44028;51.358;19.876;2023-02-11T02:05:06;20.33;;;8.48;;
55308;SDS011;44028;51.358;19.876;2023-02-11T02:08:34;20.83;;;8.88;;
55308;SDS011;44028;51.358;19.876;2023-02-11T02:11:24;22.38;;;9.05;;
55308;SDS011;44028;51.358;19.876;2023-02-11T02:14:06;28.08;;;10.50;;
55308;SDS011;44028;51.358;19.876;2023-02-11T02:16:53;27.70;;;10.55;;
55308;SDS011;44028;51.358;19.876;2023-02-11T02:34:42;29.02;;;11.23;;
55308;SDS011;44028;51.358;19.876;2023-02-11T02:37:03;32.28;;;13.07;;
55308;SDS011;44028;51.358;19.876;2023-02-11T02:40:52;36.53;;;13.88;;
55308;SDS011;44028;51.358;19.876;2023-02-11T02:43:51;31.25;;;12.45;;
55308;SDS011;44028;51.358;19.876;2023-02-11T02:46:40;35.40;;;13.40;;
55308;SDS011;44028;51.358;19.876;2023-02-11T02:52:44;31.58;;;13.40;;
55308;SDS011;44028;51.358;19.876;2023-02-11T02:59:36;29.17;;;12.57;;
55308;SDS011;44028;51.358;19.876;2023-02-11T03:10:29;32.60;;;13.50;;
55308;SDS011;44028;51.358;19.876;2023-02-11T03:13:21;28.95;;;12.80;;
55308;SDS011;44028;51.358;19.876;2023-02-11T03:16:51;29.92;;;12.75;;
55308;SDS011;44028;51.358;19.876;2023-02-11T03:19:33;33.38;;;13.60;;
55308;SDS011;44028;51.358;19.876;2023-02-11T03:22:09;31.63;;;13.55;;
55308;SDS011;44028;51.358;19.876;2023-02-11T03:25:09;29.70;;;12.35;;
55308;SDS011;44028;51.358;19.876;2023-02-11T03:31:03;43.83;;;16.00;;
55308;SDS011;44028;51.358;19.876;2023-02-11T03:34:17;56.35;;;19.48;;
55308;SDS011;44028;51.358;19.876;2023-02-11T03:41:20;59.45;;;22.15;;
55308;SDS011;44028;51.358;19.876;2023-02-11T03:44:15;46.67;;;17.70;;
55308;SDS011;44028;51.358;19.876;2023-02-11T03:50:58;37.00;;;13.63;;
55308;SDS011;44028;51.358;19.876;2023-02-11T03:53:42;32.97;;;15.25;;
55308;SDS011;44028;51.358;19.876;2023-02-11T03:56:39;37.55;;;14.68;;
55308;SDS011;44028;51.358;19.876;2023-02-11T03:59:31;38.55;;;15.73;;
55308;SDS011;44028;51.358;19.876;2023-02-11T04:13:01;32.92;;;14.88;;
55308;SDS011;44028;51.358;19.876;2023-02-11T04:16:02;34.92;;;14.43;;
55308;SDS011;44028;51.358;19.876;2023-02-11T04:19:06;33.33;;;14.52;;
55308;SDS011;44028;51.358;19.876;2023-02-11T04:21:58;31.95;;;14.02;;
55308;SDS011;44028;51.358;19.876;2023-02-11T04:38:28;33.08;;;14.10;;
55308;SDS011;44028;51.358;19.876;2023-02-11T04:41:21;31.58;;;14.15;;
55308;SDS011;44028;51.358;19.876;2023-02-11T04:44:14;25.58;;;12.13;;
55308;SDS011;44028;51.358;19.876;2023-02-11T04:47:24;33.63;;;15.43;;
55308;SDS011;44028;51.358;19.876;2023-02-11T04:57:25;31.33;;;14.38;;
55308;SDS011;44028;51.358;19.876;2023-02-11T05:00:40;41.40;;;18.15;;
55308;SDS011;44028;51.358;19.876;2023-02-11T05:03:20;34.40;;;14.77;;
55308;SDS011;44028;51.358;19.876;2023-02-11T05:06:44;32.75;;;14.55;;
55308;SDS011;44028;51.358;19.876;2023-02-11T05:09:41;30.00;;;12.25;;
55308;SDS011;44028;51.358;19.876;2023-02-11T05:18:32;34.47;;;15.90;;
55308;SDS011;44028;51.358;19.876;2023-02-11T05:21:28;38.33;;;16.10;;
55308;SDS011;44028;51.358;19.876;2023-02-11T05:27:12;33.10;;;13.93;;
55308;SDS011;44028;51.358;19.876;2023-02-11T05:29:51;34.88;;;16.10;;
55308;SDS011;44028;51.358;19.876;2023-02-11T05:32:23;40.97;;;16.92;;
55308;SDS011;44028;51.358;19.876;2023-02-11T05:35:32;35.88;;;15.05;;
55308;SDS011;44028;51.358;19.876;2023-02-11T05:38:33;35.78;;;16.95;;
55308;SDS011;44028;51.358;19.876;2023-02-11T05:41:26;37.72;;;17.05;;
55308;SDS011;44028;51.358;19.876;2023-02-11T05:44:26;41.88;;;16.02;;
55308;SDS011;44028;51.358;19.876;2023-02-11T05:47:40;43.00;;;18.15;;
55308;SDS011;44028;51.358;19.876;2023-02-11T05:50:18;45.80;;;19.60;;
55308;SDS011;44028;51.358;19.876;2023-02-11T05:53:24;40.83;;;17.77;;
55308;SDS011;44028;51.358;19.876;2023-02-11T05:56:13;41.63;;;16.70;;
55308;SDS011;44028;51.358;19.876;2023-02-11T05:58:53;42.58;;;18.23;;
55308;SDS011;44028;51.358;19.876;2023-02-11T06:04:56;39.15;;;17.38;;
55308;SDS011;44028;51.358;19.876;2023-02-11T06:08:03;41.63;;;17.40;;
55308;SDS011;44028;51.358;19.876;2023-02-11T06:11:20;40.58;;;17.15;;
55308;SDS011;44028;51.358;19.876;2023-02-11T06:14:11;42.47;;;17.08;;
55308;SDS011;44028;51.358;19.876;2023-02-11T06:17:22;42.50;;;17.27;;
55308;SDS011;44028;51.358;19.876;2023-02-11T06:20:14;43.03;;;17.65;;
55308;SDS011;44028;51.358;19.876;2023-02-11T06:23:38;37.83;;;17.33;;
55308;SDS011;44028;51.358;19.876;2023-02-11T06:29:04;37.33;;;15.57;;
55308;SDS011;44028;51.358;19.876;2023-02-11T06:31:47;45.35;;;19.02;;
55308;SDS011;44028;51.358;19.876;2023-02-11T06:34:24;32.10;;;13.85;;
55308;SDS011;44028;51.358;19.876;2023-02-11T06:36:57;43.83;;;19.63;;
55308;SDS011;44028;51.358;19.876;2023-02-11T06:39:33;40.20;;;18.33;;
55308;SDS011;44028;51.358;19.876;2023-02-11T06:42:10;43.78;;;18.52;;
55308;SDS011;44028;51.358;19.876;2023-02-11T06:44:45;43.20;;;18.35;;
55308;SDS011;44028;51.358;19.876;2023-02-11T06:47:21;39.03;;;17.08;;
55308;SDS011;44028;51.358;19.876;2023-02-11T06:50:01;45.65;;;17.25;;
55308;SDS011;44028;51.358;19.876;2023-02-11T06:56:42;41.58;;;16.15;;
55308;SDS011;44028;51.358;19.876;2023-02-11T06:59:40;43.45;;;18.60;;
55308;SDS011;44028;51.358;19.876;2023-02-11T07:02:50;42.28;;;19.55;;
55308;SDS011;44028;51.358;19.876;2023-02-11T07:06:02;43.75;;;18.92;;
55308;SDS011;44028;51.358;19.876;2023-02-11T07:09:15;40.33;;;17.98;;
55308;SDS011;44028;51.358;19.876;2023-02-11T07:12:22;35.75;;;15.70;;
55308;SDS011;44028;51.358;19.876;2023-02-11T07:15:06;34.63;;;15.43;;
55308;SDS011;44028;51.358;19.876;2023-02-11T07:18:34;37.85;;;17.23;;
55308;SDS011;44028;51.358;19.876;2023-02-11T07:21:40;41.50;;;17.55;;
55308;SDS011;44028;51.358;19.876;2023-02-11T07:24:59;45.83;;;19.80;;
55308;SDS011;44028;51.358;19.876;2023-02-11T07:30:54;50.60;;;22.35;;
55308;SDS011;44028;51.358;19.876;2023-02-11T07:33:46;71.10;;;30.60;;
55308;SDS011;44028;51.358;19.876;2023-02-11T07:36:45;89.50;;;36.95;;
55308;SDS011;44028;51.358;19.876;2023-02-11T07:39:52;47.45;;;19.42;;
55308;SDS011;44028;51.358;19.876;2023-02-11T07:43:19;37.60;;;16.35;;
55308;SDS011;44028;51.358;19.876;2023-02-11T07:46:17;51.90;;;21.13;;
55308;SDS011;44028;51.358;19.876;2023-02-11T07:55:33;41.05;;;19.35;;
55308;SDS011;44028;51.358;19.876;2023-02-11T07:58:27;45.17;;;21.88;;
55308;SDS011;44028;51.358;19.876;2023-02-11T08:01:14;50.58;;;21.48;;
55308;SDS011;44028;51.358;19.876;2023-02-11T08:03:41;45.88;;;19.98;;
55308;SDS011;44028;51.358;19.876;2023-02-11T08:06:16;47.92;;;22.55;;
55308;SDS011;44028;51.358;19.876;2023-02-11T08:08:43;42.88;;;20.55;;
55308;SDS011;44028;51.358;19.876;2023-02-11T08:11:15;49.83;;;22.20;;
55308;SDS011;44028;51.358;19.876;2023-02-11T08:13:47;47.60;;;19.70;;
55308;SDS011;44028;51.358;19.876;2023-02-11T08:16:38;46.33;;;20.42;;
55308;SDS011;44028;51.358;19.876;2023-02-11T08:19:32;44.63;;;19.85;;
55308;SDS011;44028;51.358;19.876;2023-02-11T08:26:01;37.58;;;17.17;;
55308;SDS011;44028;51.358;19.876;2023-02-11T08:29:10;44.25;;;19.95;;
55308;SDS011;44028;51.358;19.876;2023-02-11T08:35:22;46.58;;;20.70;;
55308;SDS011;44028;51.358;19.876;2023-02-11T08:37:52;45.67;;;19.88;;
55308;SDS011;44028;51.358;19.876;2023-02-11T08:40:24;47.22;;;21.25;;
55308;SDS011;44028;51.358;19.876;2023-02-11T08:42:51;42.75;;;19.08;;
55308;SDS011;44028;51.358;19.876;2023-02-11T08:45:18;50.45;;;22.27;;
55308;SDS011;44028;51.358;19.876;2023-02-11T08:47:45;54.90;;;23.58;;
55308;SDS011;44028;51.358;19.876;2023-02-11T08:50:12;47.72;;;20.75;;
55308;SDS011;44028;51.358;19.876;2023-02-11T08:52:39;42.25;;;18.30;;
55308;SDS011;44028;51.358;19.876;2023-02-11T08:55:09;47.40;;;20.02;;
55308;SDS011;44028;51.358;19.876;2023-02-11T08:58:23;40.50;;;17.40;;
55308;SDS011;44028;51.358;19.876;2023-02-11T09:01:21;50.78;;;20.98;;
55308;SDS011;44028;51.358;19.876;2023-02-11T09:04:12;42.85;;;18.88;;
55308;SDS011;44028;51.358;19.876;2023-02-11T09:06:45;51.35;;;23.38;;
55308;SDS011;44028;51.358;19.876;2023-02-11T09:09:12;62.85;;;27.63;;
55308;SDS011;44028;51.358;19.876;2023-02-11T09:11:40;47.33;;;19.90;;
55308;SDS011;44028;51.358;19.876;2023-02-11T09:14:11;44.88;;;19.75;;
55308;SDS011;44028;51.358;19.876;2023-02-11T09:16:45;71.15;;;30.95;;
55308;SDS011;44028;51.358;19.876;2023-02-11T09:19:14;56.67;;;25.40;;
55308;SDS011;44028;51.358;19.876;2023-02-11T09:21:44;50.65;;;22.33;;
55308;SDS011;44028;51.358;19.876;2023-02-11T09:24:11;48.25;;;22.88;;
55308;SDS011;44028;51.358;19.876;2023-02-11T09:26:40;41.15;;;20.85;;
55308;SDS011;44028;51.358;19.876;2023-02-11T09:29:11;38.45;;;18.02;;
55308;SDS011;44028;51.358;19.876;2023-02-11T09:32:07;53.03;;;23.65;;
55308;SDS011;44028;51.358;19.876;2023-02-11T09:34:35;55.67;;;24.80;;
55308;SDS011;44028;51.358;19.876;2023-02-11T09:37:02;59.80;;;23.27;;
55308;SDS011;44028;51.358;19.876;2023-02-11T09:39:35;52.10;;;24.70;;
55308;SDS011;44028;51.358;19.876;2023-02-11T09:44:52;69.13;;;27.73;;
55308;SDS011;44028;51.358;19.876;2023-02-11T09:50:12;46.17;;;21.52;;
55308;SDS011;44028;51.358;19.876;2023-02-11T09:52:42;52.53;;;22.38;;
55308;SDS011;44028;51.358;19.876;2023-02-11T09:55:18;56.80;;;24.17;;
55308;SDS011;44028;51.358;19.876;2023-02-11T09:57:51;96.57;;;33.25;;
55308;SDS011;44028;51.358;19.876;2023-02-11T10:06:18;79.03;;;30.05;;
55308;SDS011;44028;51.358;19.876;2023-02-11T10:27:48;43.45;;;18.98;;
55308;SDS011;44028;51.358;19.876;2023-02-11T10:33:53;43.28;;;20.98;;
55308;SDS011;44028;51.358;19.876;2023-02-11T10:36:12;49.38;;;22.38;;
55308;SDS011;44028;51.358;19.876;2023-02-11T10:38:39;47.00;;;20.85;;
55308;SDS011;44028;51.358;19.876;2023-02-11T10:41:09;49.35;;;22.08;;
55308;SDS011;44028;51.358;19.876;2023-02-11T10:43:41;44.15;;;19.45;;
55308;SDS011;44028;51.358;19.876;2023-02-11T10:46:11;44.83;;;20.38;;
55308;SDS011;44028;51.358;19.876;2023-02-11T10:48:43;42.22;;;20.50;;
55308;SDS011;44028;51.358;19.876;2023-02-11T10:54:05;37.53;;;17.17;;
55308;SDS011;44028;51.358;19.876;2023-02-11T10:57:03;47.90;;;21.75;;
55308;SDS011;44028;51.358;19.876;2023-02-11T10:59:44;42.63;;;20.30;;
55308;SDS011;44028;51.358;19.876;2023-02-11T11:02:22;47.20;;;20.83;;
55308;SDS011;44028;51.358;19.876;2023-02-11T11:05:05;50.90;;;22.25;;
55308;SDS011;44028;51.358;19.876;2023-02-11T11:11:00;48.45;;;20.95;;
55308;SDS011;44028;51.358;19.876;2023-02-11T11:19:23;42.80;;;19.10;;
55308;SDS011;44028;51.358;19.876;2023-02-11T11:21:53;47.42;;;20.10;;
55308;SDS011;44028;51.358;19.876;2023-02-11T11:27:15;60.83;;;25.92;;
55308;SDS011;44028;51.358;19.876;2023-02-11T11:29:46;57.95;;;26.25;;
55308;SDS011;44028;51.358;19.876;2023-02-11T11:32:23;52.78;;;25.27;;
55308;SDS011;44028;51.358;19.876;2023-02-11T11:34:53;53.55;;;24.05;;
55308;SDS011;44028;51.358;19.876;2023-02-11T11:37:31;56.67;;;25.77;;
55308;SDS011;44028;51.358;19.876;2023-02-11T11:42:38;50.72;;;22.05;;
55308;SDS011;44028;51.358;19.876;2023-02-11T11:56:05;49.35;;;22.55;;
55308;SDS011;44028;51.358;19.876;2023-02-11T11:58:50;36.80;;;17.27;;
55308;SDS011;44028;51.358;19.876;2023-02-11T12:40:32;48.40;;;22.30;;
55308;SDS011;44028;51.358;19.876;2023-02-11T12:43:22;39.83;;;17.10;;
55308;SDS011;44028;51.358;19.876;2023-02-11T12:54:28;40.38;;;17.58;;
55308;SDS011;44028;51.358;19.876;2023-02-11T13:09:29;43.35;;;19.38;;
55308;SDS011;44028;51.358;19.876;2023-02-11T13:12:44;54.13;;;23.35;;
55308;SDS011;44028;51.358;19.876;2023-02-11T13:22:54;58.83;;;26.42;;
55308;SDS011;44028;51.358;19.876;2023-02-11T13:30:57;67.18;;;29.50;;
55308;SDS011;44028;51.358;19.876;2023-02-11T13:33:46;50.13;;;22.60;;
55308;SDS011;44028;51.358;19.876;2023-02-11T13:40:21;80.50;;;35.67;;
55308;SDS011;44028;51.358;19.876;2023-02-11T13:43:04;68.78;;;31.73;;
55308;SDS011;44028;51.358;19.876;2023-02-11T13:45:52;62.67;;;26.75;;
55308;SDS011;44028;51.358;19.876;2023-02-11T13:48:48;62.88;;;26.08;;
55308;SDS011;44028;51.358;19.876;2023-02-11T13:54:36;58.28;;;24.65;;
55308;SDS011;44028;51.358;19.876;2023-02-11T13:57:38;89.72;;;38.78;;
55308;SDS011;44028;51.358;19.876;2023-02-11T14:04:26;70.07;;;31.13;;
55308;SDS011;44028;51.358;19.876;2023-02-11T14:13:32;61.13;;;27.25;;
55308;SDS011;44028;51.358;19.876;2023-02-11T14:19:07;50.00;;;22.42;;
55308;SDS011;44028;51.358;19.876;2023-02-11T14:21:48;52.25;;;23.30;;
55308;SDS011;44028;51.358;19.876;2023-02-11T14:30:04;45.30;;;21.02;;
55308;SDS011;44028;51.358;19.876;2023-02-11T14:41:03;100.50;;;51.75;;
55308;SDS011;44028;51.358;19.876;2023-02-11T14:43:38;88.72;;;46.20;;
55308;SDS011;44028;51.358;19.876;2023-02-11T14:46:06;75.07;;;34.35;;
55308;SDS011;44028;51.358;19.876;2023-02-11T14:48:35;65.57;;;29.60;;
55308;SDS011;44028;51.358;19.876;2023-02-11T15:00:16;53.25;;;23.77;;
55308;SDS011;44028;51.358;19.876;2023-02-11T15:02:43;59.65;;;28.38;;
55308;SDS011;44028;51.358;19.876;2023-02-11T15:05:21;60.88;;;26.60;;
55308;SDS011;44028;51.358;19.876;2023-02-11T15:08:12;64.07;;;28.60;;
55308;SDS011;44028;51.358;19.876;2023-02-11T15:10:43;64.88;;;27.73;;
55308;SDS011;44028;51.358;19.876;2023-02-11T15:13:20;64.40;;;27.67;;
55308;SDS011;44028;51.358;19.876;2023-02-11T15:16:24;61.15;;;26.00;;
55308;SDS011;44028;51.358;19.876;2023-02-11T15:19:02;64.53;;;27.73;;
55308;SDS011;44028;51.358;19.876;2023-02-11T15:21:43;56.50;;;24.13;;
55308;SDS011;44028;51.358;19.876;2023-02-11T15:24:21;60.78;;;26.52;;
55308;SDS011;44028;51.358;19.876;2023-02-11T15:29:26;50.80;;;23.23;;
55308;SDS011;44028;51.358;19.876;2023-02-11T15:34:35;67.25;;;30.95;;
55308;SDS011;44028;51.358;19.876;2023-02-11T15:37:04;65.15;;;27.42;;
55308;SDS011;44028;51.358;19.876;2023-02-11T15:39:32;73.35;;;31.88;;
55308;SDS011;44028;51.358;19.876;2023-02-11T15:48:12;74.88;;;31.77;;
55308;SDS011;44028;51.358;19.876;2023-02-11T15:51:21;71.07;;;30.63;;
55308;SDS011;44028;51.358;19.876;2023-02-11T15:58:00;68.30;;;31.20;;
55308;SDS011;44028;51.358;19.876;2023-02-11T16:00:44;66.35;;;31.88;;
55308;SDS011;44028;51.358;19.876;2023-02-11T16:03:36;55.13;;;24.60;;
55308;SDS011;44028;51.358;19.876;2023-02-11T16:13:03;56.42;;;26.10;;
55308;SDS011;44028;51.358;19.876;2023-02-11T16:16:01;47.90;;;22.42;;
55308;SDS011;44028;51.358;19.876;2023-02-11T16:19:04;57.35;;;24.10;;
55308;SDS011;44028;51.358;19.876;2023-02-11T16:21:43;53.53;;;23.63;;
55308;SDS011;44028;51.358;19.876;2023-02-11T16:24:16;109.20;;;45.40;;
55308;SDS011;44028;51.358;19.876;2023-02-11T16:26:50;65.68;;;31.98;;
55308;SDS011;44028;51.358;19.876;2023-02-11T16:29:22;73.57;;;37.30;;
55308;SDS011;44028;51.358;19.876;2023-02-11T16:34:33;59.17;;;26.77;;
55308;SDS011;44028;51.358;19.876;2023-02-11T16:37:01;59.33;;;28.25;;
55308;SDS011;44028;51.358;19.876;2023-02-11T16:39:35;63.50;;;32.22;;
55308;SDS011;44028;51.358;19.876;2023-02-11T16:45:22;56.95;;;27.80;;
55308;SDS011;44028;51.358;19.876;2023-02-11T16:48:14;70.47;;;34.63;;
55308;SDS011;44028;51.358;19.876;2023-02-11T16:50:47;63.65;;;30.88;;
55308;SDS011;44028;51.358;19.876;2023-02-11T16:53:22;64.78;;;32.22;;
55308;SDS011;44028;51.358;19.876;2023-02-11T16:55:55;68.70;;;32.33;;
55308;SDS011;44028;51.358;19.876;2023-02-11T16:58:31;62.63;;;28.55;;
55308;SDS011;44028;51.358;19.876;2023-02-11T17:01:05;70.25;;;35.50;;
55308;SDS011;44028;51.358;19.876;2023-02-11T17:03:39;71.55;;;33.20;;
55308;SDS011;44028;51.358;19.876;2023-02-11T17:06:17;66.10;;;30.75;;
55308;SDS011;44028;51.358;19.876;2023-02-11T17:08:48;74.38;;;33.53;;
55308;SDS011;44028;51.358;19.876;2023-02-11T17:11:17;80.18;;;37.33;;
55308;SDS011;44028;51.358;19.876;2023-02-11T17:17:07;71.53;;;32.60;;
55308;SDS011;44028;51.358;19.876;2023-02-11T17:19:40;72.78;;;31.15;;
55308;SDS011;44028;51.358;19.876;2023-02-11T17:22:23;79.28;;;36.83;;
55308;SDS011;44028;51.358;19.876;2023-02-11T17:24:50;61.75;;;28.02;;
55308;SDS011;44028;51.358;19.876;2023-02-11T17:27:17;55.88;;;23.65;;
55308;SDS011;44028;51.358;19.876;2023-02-11T17:29:44;61.00;;;26.88;;
55308;SDS011;44028;51.358;19.876;2023-02-11T17:32:14;55.90;;;26.15;;
55308;SDS011;44028;51.358;19.876;2023-02-11T17:34:43;57.92;;;26.50;;
55308;SDS011;44028;51.358;19.876;2023-02-11T17:37:20;67.05;;;31.33;;
55308;SDS011;44028;51.358;19.876;2023-02-11T17:42:23;66.10;;;28.52;;
55308;SDS011;44028;51.358;19.876;2023-02-11T17:44:53;74.82;;;32.47;;
55308;SDS011;44028;51.358;19.876;2023-02-11T17:47:20;61.05;;;28.13;;
55308;SDS011;44028;51.358;19.876;2023-02-11T17:49:47;56.22;;;26.48;;
55308;SDS011;44028;51.358;19.876;2023-02-11T17:52:17;57.13;;;26.13;;
55308;SDS011;44028;51.358;19.876;2023-02-11T17:55:25;65.82;;;31.52;;
55308;SDS011;44028;51.358;19.876;2023-02-11T17:58:05;66.45;;;29.08;;
55308;SDS011;44028;51.358;19.876;2023-02-11T18:01:17;66.20;;;30.40;;
55308;SDS011;44028;51.358;19.876;2023-02-11T18:17:21;76.57;;;38.47;;
55308;SDS011;44028;51.358;19.876;2023-02-11T18:24:22;97.60;;;43.25;;
55308;SDS011;44028;51.358;19.876;2023-02-11T18:27:39;160.02;;;93.78;;
55308;SDS011;44028;51.358;19.876;2023-02-11T18:31:03;103.43;;;56.60;;
55308;SDS011;44028;51.358;19.876;2023-02-11T18:33:40;79.38;;;45.53;;
55308;SDS011;44028;51.358;19.876;2023-02-11T18:37:00;64.35;;;32.67;;
55308;SDS011;44028;51.358;19.876;2023-02-11T18:40:07;64.93;;;31.05;;
55308;SDS011;44028;51.358;19.876;2023-02-11T18:42:58;56.30;;;25.27;;
55308;SDS011;44028;51.358;19.876;2023-02-11T18:45:41;65.13;;;29.23;;
55308;SDS011;44028;51.358;19.876;2023-02-11T18:48:08;57.55;;;26.17;;
55308;SDS011;44028;51.358;19.876;2023-02-11T18:50:36;64.40;;;27.95;;
55308;SDS011;44028;51.358;19.876;2023-02-11T18:55:59;54.72;;;24.60;;
55308;SDS011;44028;51.358;19.876;2023-02-11T18:58:34;64.45;;;28.15;;
55308;SDS011;44028;51.358;19.876;2023-02-11T19:04:19;59.40;;;26.23;;
55308;SDS011;44028;51.358;19.876;2023-02-11T19:07:31;58.80;;;27.33;;
55308;SDS011;44028;51.358;19.876;2023-02-11T19:17:18;53.85;;;24.83;;
55308;SDS011;44028;51.358;19.876;2023-02-11T19:24:32;63.35;;;26.83;;
55308;SDS011;44028;51.358;19.876;2023-02-11T19:27:53;53.83;;;24.35;;
55308;SDS011;44028;51.358;19.876;2023-02-11T19:30:45;62.60;;;26.75;;
55308;SDS011;44028;51.358;19.876;2023-02-11T19:33:45;56.53;;;24.17;;
55308;SDS011;44028;51.358;19.876;2023-02-11T19:39:41;57.92;;;25.48;;
55308;SDS011;44028;51.358;19.876;2023-02-11T19:42:14;60.22;;;27.15;;
55308;SDS011;44028;51.358;19.876;2023-02-11T19:44:44;50.80;;;24.13;;
55308;SDS011;44028;51.358;19.876;2023-02-11T19:47:17;57.72;;;26.33;;
55308;SDS011;44028;51.358;19.876;2023-02-11T19:49:44;58.88;;;25.88;;
55308;SDS011;44028;51.358;19.876;2023-02-11T19:52:31;52.50;;;24.02;;
55308;SDS011;44028;51.358;19.876;2023-02-11T19:55:06;52.97;;;25.13;;
55308;SDS011;44028;51.358;19.876;2023-02-11T20:01:47;48.67;;;22.90;;
55308;SDS011;44028;51.358;19.876;2023-02-11T20:05:02;58.38;;;26.42;;
55308;SDS011;44028;51.358;19.876;2023-02-11T20:08:17;59.22;;;27.65;;
55308;SDS011;44028;51.358;19.876;2023-02-11T20:11:05;58.53;;;25.10;;
55308;SDS011;44028;51.358;19.876;2023-02-11T20:13:34;57.83;;;27.08;;
55308;SDS011;44028;51.358;19.876;2023-02-11T20:23:36;59.03;;;26.60;;
55308;SDS011;44028;51.358;19.876;2023-02-11T20:29:56;60.28;;;26.15;;
55308;SDS011;44028;51.358;19.876;2023-02-11T20:32:28;60.15;;;27.58;;
55308;SDS011;44028;51.358;19.876;2023-02-11T20:35:06;64.65;;;27.13;;
55308;SDS011;44028;51.358;19.876;2023-02-11T20:37:42;63.03;;;29.50;;
55308;SDS011;44028;51.358;19.876;2023-02-11T20:40:18;62.45;;;28.13;;
55308;SDS011;44028;51.358;19.876;2023-02-11T20:42:46;69.70;;;31.77;;
55308;SDS011;44028;51.358;19.876;2023-02-11T20:45:20;67.32;;;29.95;;
55308;SDS011;44028;51.358;19.876;2023-02-11T20:47:56;59.33;;;26.90;;
55308;SDS011;44028;51.358;19.876;2023-02-11T20:51:41;57.92;;;27.13;;
55308;SDS011;44028;51.358;19.876;2023-02-11T20:55:13;50.20;;;23.90;;
55308;SDS011;44028;51.358;19.876;2023-02-11T20:58:18;55.80;;;26.98;;
55308;SDS011;44028;51.358;19.876;2023-02-11T21:11:33;51.60;;;25.20;;
55308;SDS011;44028;51.358;19.876;2023-02-11T21:14:00;52.13;;;23.60;;
55308;SDS011;44028;51.358;19.876;2023-02-11T21:16:46;50.28;;;24.20;;
55308;SDS011;44028;51.358;19.876;2023-02-11T21:19:23;51.80;;;25.03;;
55308;SDS011;44028;51.358;19.876;2023-02-11T21:22:30;47.08;;;21.90;;
55308;SDS011;44028;51.358;19.876;2023-02-11T21:29:36;47.05;;;21.40;;
55308;SDS011;44028;51.358;19.876;2023-02-11T21:32:42;41.30;;;18.83;;
55308;SDS011;44028;51.358;19.876;2023-02-11T21:43:26;48.50;;;19.75;;
55308;SDS011;44028;51.358;19.876;2023-02-11T21:46:49;46.95;;;21.80;;
55308;SDS011;44028;51.358;19.876;2023-02-11T22:37:44;48.08;;;20.98;;
55308;SDS011;44028;51.358;19.876;2023-02-11T22:40:59;47.22;;;21.25;;
55308;SDS011;44028;51.358;19.876;2023-02-11T22:43:58;52.50;;;25.10;;
55308;SDS011;44028;51.358;19.876;2023-02-11T22:47:01;58.90;;;25.73;;
55308;SDS011;44028;51.358;19.876;2023-02-11T22:49:52;45.10;;;21.45;;
55308;SDS011;44028;51.358;19.876;2023-02-11T22:52:45;50.65;;;20.73;;
55308;SDS011;44028;51.358;19.876;2023-02-11T22:55:50;43.50;;;20.83;;
55308;SDS011;44028;51.358;19.876;2023-02-11T22:59:11;75.28;;;31.17;;
55308;SDS011;44028;51.358;19.876;2023-02-11T23:02:35;73.13;;;29.50;;
55308;SDS011;44028;51.358;19.876;2023-02-11T23:05:14;56.30;;;23.52;;
55308;SDS011;44028;51.358;19.876;2023-02-11T23:11:19;36.63;;;15.05;;
55308;SDS011;44028;51.358;19.876;2023-02-11T23:14:24;37.72;;;15.98;;
55308;SDS011;44028;51.358;19.876;2023-02-11T23:17:24;43.78;;;17.35;;
55308;SDS011;44028;51.358;19.876;2023-02-11T23:20:23;37.13;;;16.00;;
55308;SDS011;44028;51.358;19.876;2023-02-11T23:22:58;44.72;;;20.52;;
55308;SDS011;44028;51.358;19.876;2023-02-11T23:25:33;38.03;;;16.20;;
55308;SDS011;44028;51.358;19.876;2023-02-11T23:31:26;33.15;;;15.38;;
55308;SDS011;44028;51.358;19.876;2023-02-11T23:34:26;34.00;;;13.50;;
55308;SDS011;44028;51.358;19.876;2023-02-11T23:37:05;29.58;;;12.73;;
55308;SDS011;44028;51.358;19.876;2023-02-11T23:39:44;31.65;;;12.65;;
55308;SDS011;44028;51.358;19.876;2023-02-11T23:46:25;36.95;;;16.27;;
55308;SDS011;44028;51.358;19.876;2023-02-11T23:49:05;28.52;;;12.48;;
55308;SDS011;44028;51.358;19.876;2023-02-11T23:51:54;30.02;;;12.80;;
55308;SDS011;44028;51.358;19.876;2023-02-11T23:55:23;29.25;;;12.45;;
